Terminal Aerodrome Forecast
Issued by NWS Shreveport, LA

Home | Current Version | Previous Version | Text Only | Print | Product List | Glossary On
Versions: 1 2 3 4 5 6 7 8 9 10 11 12 13 14 15
000
FTUS44 KSHV 302100 AAA
TAFLFK
TAF AMD
KLFK 302143Z 3022/0118 16007KT P6SM VCSH FEW040 FEW100
     FM010000 13004KT P6SM SCT050 SCT100 SCT250
      TEMPO 0108/0110 3SM BR BKN015
     FM011000 14004KT 3SM BR OVC015
      TEMPO 0110/0114 1SM BR BKN005
     FM011500 15006KT P6SM OVC015
     FM011600 16006KT P6SM BKN025=

USA.gov is the U.S. government's official web portal to all federal, state and local government web resources and services.